Time;durP1;ratioP1;P1;durP2;ratioP2;P2;SDS_P1;SDS_P2;PMS_P1;PMS_P2;Temp;Humidity;BMP_temperature;BMP_pressure;BME280_temperature;BME280_humidity;BME280_pressure;Samples;Min_cycle;Max_cycle;Signal;HPM_P1;HPM_P2
2024/01/24 00:07:24;;;;;;;10.1;5.6;;;;;;;2.37;80.62;99536.666666667;;;;
2024/01/24 00:18:24;;;;;;;10.1;5.6;;;;;;;2.47;79.82;99518.333333333;;;;
2024/01/24 00:29:24;;;;;;;11.7;4.3;;;;;;;2.51;78.94;99508.333333333;;;;
2024/01/24 00:39:24;;;;;;;11.7;4.3;;;;;;;2.48;78.83;99491.666666667;;;;
2024/01/24 00:49:24;;;;;;;11.7;4.3;;;;;;;2.46;78.64;99480;;;;
2024/01/24 01:00:24;;;;;;;7.3;3.6;;;;;;;2.35;78.7;99456.666666667;;;;
2024/01/24 01:10:24;;;;;;;7.3;3.6;;;;;;;2.36;78.15;99451.666666667;;;;
2024/01/24 01:20:24;;;;;;;7.3;3.6;;;;;;;2.35;77.81;99461.666666667;;;;
2024/01/24 01:31:24;;;;;;;7.2;3.4;;;;;;;2.32;77.82;99430;;;;
2024/01/24 01:41:24;;;;;;;7.2;3.4;;;;;;;2.36;76.84;99408.333333333;;;;
2024/01/24 01:51:24;;;;;;;7.2;3.4;;;;;;;2.46;75.79;99391.666666667;;;;
2024/01/24 02:02:24;;;;;;;6.4;3.6;;;;;;;2.52;74.56;99363.333333333;;;;
2024/01/24 02:13:24;;;;;;;6.4;3.6;;;;;;;2.64;73.78;99328.333333333;;;;
2024/01/24 02:23:25;;;;;;;6.3;3.2;;;;;;;2.73;73.2;99298.333333333;;;;
2024/01/24 02:34:24;;;;;;;6.3;3.2;;;;;;;2.7;73.67;99278.333333333;;;;
2024/01/24 02:44:24;;;;;;;6.3;3.2;;;;;;;2.91;71.25;99250;;;;
2024/01/24 02:55:24;;;;;;;5.9;2.9;;;;;;;2.94;70.98;99221.666666667;;;;
2024/01/24 03:06:24;;;;;;;5.9;2.9;;;;;;;2.92;70.97;99186.666666667;;;;
2024/01/24 03:16:24;;;;;;;5.9;2.9;;;;;;;2.8;71.26;99160;;;;
2024/01/24 03:26:24;;;;;;;4;2;;;;;;;2.77;71.73;99138.333333333;;;;
2024/01/24 03:36:24;;;;;;;4;2;;;;;;;2.83;72;99130;;;;
2024/01/24 03:46:24;;;;;;;4;2;;;;;;;3.18;72.26;99113.333333333;;;;
2024/01/24 03:57:24;;;;;;;5.1;3.1;;;;;;;3.43;72.56;99091.666666667;;;;
2024/01/24 04:08:24;;;;;;;5.1;3.1;;;;;;;3.43;72.11;99040;;;;
2024/01/24 04:18:24;;;;;;;5.1;3.1;;;;;;;3.55;72.23;99026.666666667;;;;
2024/01/24 04:28:24;;;;;;;4.7;2.3;;;;;;;3.66;72.26;98993.333333333;;;;
2024/01/24 04:38:25;;;;;;;4.7;2.3;;;;;;;3.82;71.2;98986.666666667;;;;
2024/01/24 04:49:24;;;;;;;4.7;2.3;;;;;;;3.84;71.25;98966.666666667;;;;
2024/01/24 04:59:24;;;;;;;6.8;2.4;;;;;;;3.95;70.03;98978.333333333;;;;
2024/01/24 05:09:24;;;;;;;6.8;2.4;;;;;;;4.03;70.33;98948.333333333;;;;
2024/01/24 05:20:24;;;;;;;6.8;2.4;;;;;;;4.14;70.16;98930;;;;
2024/01/24 05:30:25;;;;;;;5.5;2.2;;;;;;;4.17;70.74;98910;;;;
2024/01/24 05:40:24;;;;;;;5.5;2.2;;;;;;;4.29;70.94;98890;;;;
2024/01/24 05:50:24;;;;;;;5.5;2.2;;;;;;;4.64;70.59;98868.333333333;;;;
2024/01/24 06:01:24;;;;;;;6.5;2.1;;;;;;;4.99;70.54;98843.333333333;;;;
2024/01/24 06:11:24;;;;;;;6.5;2.1;;;;;;;5.32;69.97;98803.333333333;;;;
2024/01/24 06:22:24;;;;;;;5.4;2.1;;;;;;;5.54;69.87;98778.333333333;;;;
2024/01/24 06:33:24;;;;;;;5.4;2.1;;;;;;;5.49;73.38;98753.333333333;;;;
2024/01/24 06:43:24;;;;;;;5.4;2.1;;;;;;;5.37;75.14;98725;;;;
2024/01/24 06:54:24;;;;;;;8.5;2.2;;;;;;;5.31;77.63;98713.333333333;;;;
2024/01/24 07:04:24;;;;;;;8.5;2.2;;;;;;;5.33;78.45;98705;;;;
2024/01/24 07:15:24;;;;;;;8.5;2.2;;;;;;;5.46;79.05;98681.666666667;;;;
2024/01/24 07:26:24;;;;;;;3.8;2.1;;;;;;;5.59;79.27;98658.333333333;;;;
2024/01/24 07:36:24;;;;;;;3.8;2.1;;;;;;;5.81;78.07;98628.333333333;;;;
2024/01/24 07:47:24;;;;;;;3.8;2.1;;;;;;;6.03;77.11;98618.333333333;;;;
2024/01/24 07:57:24;;;;;;;3.7;1.3;;;;;;;6.38;75.87;98610;;;;
2024/01/24 08:08:26;;;;;;;3.7;1.3;;;;;;;6.5;75.75;98591.666666667;;;;
2024/01/24 08:18:24;;;;;;;3.7;1.3;;;;;;;6.4;76.56;98561.666666667;;;;
2024/01/24 08:29:25;;;;;;;2;1.2;;;;;;;6.37;78.22;98536.666666667;;;;
2024/01/24 08:40:24;;;;;;;2;1.2;;;;;;;6.3;78.4;98546.666666667;;;;
2024/01/24 08:51:29;;;;;;;2;1.2;;;;;;;6.59;77.73;98530;;;;
2024/01/24 09:01:25;;;;;;;2.4;1.1;;;;;;;6.69;78.93;98500;;;;
2024/01/24 09:12:24;;;;;;;2.4;1.1;;;;;;;6.71;78.57;98488.333333333;;;;
2024/01/24 09:22:24;;;;;;;2.8;1.1;;;;;;;6.75;78.21;98465;;;;
2024/01/24 09:32:24;;;;;;;2.8;1.1;;;;;;;6.99;79.17;98430;;;;
2024/01/24 09:42:25;;;;;;;2.8;1.1;;;;;;;7.07;78.92;98430;;;;
2024/01/24 09:52:26;;;;;;;4;1.8;;;;;;;6.92;81.32;98431.666666667;;;;
2024/01/24 10:03:24;;;;;;;4;1.8;;;;;;;6.67;83.28;98405;;;;
2024/01/24 10:13:24;;;;;;;4;1.8;;;;;;;6.59;84.6;98378.333333333;;;;
2024/01/24 10:23:25;;;;;;;2;1.1;;;;;;;6.43;85.63;98360;;;;
2024/01/24 10:34:24;;;;;;;2;1.1;;;;;;;6.43;85.97;98338.333333333;;;;
2024/01/24 10:45:25;;;;;;;2;1.1;;;;;;;6.56;85.33;98346.666666667;;;;
2024/01/24 10:56:24;;;;;;;2.9;1.4;;;;;;;6.51;85.31;98330;;;;
2024/01/24 11:06:24;;;;;;;2.9;1.4;;;;;;;6.57;86.53;98315;;;;
2024/01/24 11:16:24;;;;;;;2.9;1.4;;;;;;;6.69;86.36;98295;;;;
2024/01/24 11:27:25;;;;;;;3.8;1.6;;;;;;;6.9;84.44;98283.333333333;;;;
2024/01/24 11:38:26;;;;;;;3.8;1.6;;;;;;;6.97;85.03;98266.666666667;;;;
2024/01/24 11:49:25;;;;;;;3.8;1.6;;;;;;;7.2;83.92;98263.333333333;;;;
2024/01/24 11:59:24;;;;;;;3;1.3;;;;;;;7.56;82.53;98241.666666667;;;;
2024/01/24 12:10:24;;;;;;;3;1.3;;;;;;;7.75;81.57;98231.666666667;;;;
2024/01/24 12:20:24;;;;;;;3;1.3;;;;;;;8.57;79.56;98216.666666667;;;;
2024/01/24 12:30:24;;;;;;;4.5;1.4;;;;;;;8.84;78.54;98205;;;;
2024/01/24 12:41:24;;;;;;;4.5;1.4;;;;;;;9.07;78.63;98200;;;;
2024/01/24 12:52:25;;;;;;;4.1;2;;;;;;;9.81;76.66;98188.333333333;;;;
2024/01/24 13:02:26;;;;;;;4.1;2;;;;;;;10.3;74.76;98176.666666667;;;;
2024/01/24 13:13:25;;;;;;;4.1;2;;;;;;;10.56;73.75;98173.333333333;;;;
2024/01/24 13:23:25;;;;;;;4.6;1.9;;;;;;;10.68;73.49;98161.666666667;;;;
2024/01/24 13:34:24;;;;;;;4.6;1.9;;;;;;;10.67;73.74;98150;;;;
2024/01/24 13:45:25;;;;;;;4.6;1.9;;;;;;;10.62;73.19;98158.333333333;;;;
2024/01/24 13:56:24;;;;;;;4.3;2.2;;;;;;;10.77;72.68;98155;;;;
2024/01/24 14:06:25;;;;;;;4.3;2.2;;;;;;;10.75;73.13;98138.333333333;;;;
2024/01/24 14:16:25;;;;;;;4.3;2.2;;;;;;;11.01;73.54;98141.666666667;;;;
2024/01/24 14:27:26;;;;;;;3.1;1.6;;;;;;;11.1;73.8;98151.666666667;;;;
2024/01/24 14:37:25;;;;;;;3.1;1.6;;;;;;;10.84;77.97;98205;;;;
2024/01/24 14:48:25;;;;;;;3.1;1.6;;;;;;;9.7;86.62;98326.666666667;;;;
2024/01/24 14:58:25;;;;;;;4.1;2.2;;;;;;;8.26;85.54;98350;;;;
2024/01/24 15:09:24;;;;;;;4.1;2.2;;;;;;;7.7;87.06;98305;;;;
2024/01/24 15:19:25;;;;;;;4.1;2.2;;;;;;;7.54;85.19;98298.333333333;;;;
2024/01/24 15:30:25;;;;;;;5.3;2.3;;;;;;;7.3;85.91;98333.333333333;;;;
2024/01/24 15:40:25;;;;;;;5.3;2.3;;;;;;;7.34;85.55;98333.333333333;;;;
2024/01/24 15:51:25;;;;;;;5.6;2.5;;;;;;;7.41;83.39;98338.333333333;;;;
2024/01/24 16:02:25;;;;;;;5.6;2.5;;;;;;;7.27;84.42;98328.333333333;;;;
2024/01/24 16:13:24;;;;;;;5.6;2.5;;;;;;;7.26;85.61;98328.333333333;;;;
2024/01/24 16:23:25;;;;;;;10.5;3.9;;;;;;;7.31;85.41;98343.333333333;;;;
2024/01/24 16:33:25;;;;;;;10.5;3.9;;;;;;;7.41;84.92;98328.333333333;;;;
2024/01/24 16:44:25;;;;;;;10.5;3.9;;;;;;;7.4;85.93;98335;;;;
2024/01/24 16:55:25;;;;;;;5.6;2.6;;;;;;;7.73;86.65;98341.666666667;;;;
2024/01/24 17:06:25;;;;;;;5.6;2.6;;;;;;;7.77;86.9;98350;;;;
2024/01/24 17:17:25;;;;;;;5.6;2.6;;;;;;;8.05;83.43;98355;;;;
2024/01/24 17:28:24;;;;;;;7.3;3;;;;;;;8.33;81.09;98365;;;;
2024/01/24 17:38:27;;;;;;;7.3;3;;;;;;;8.58;79.46;98361.666666667;;;;
2024/01/24 17:49:25;;;;;;;7.3;3;;;;;;;8.6;77.89;98378.333333333;;;;
2024/01/24 18:00:24;;;;;;;7.1;3.8;;;;;;;8.42;77.32;98391.666666667;;;;
2024/01/24 18:10:25;;;;;;;7.1;3.8;;;;;;;8.33;76.7;98391.666666667;;;;
2024/01/24 18:20:29;;;;;;;7.1;3.8;;;;;;;8.52;74.09;98395;;;;
2024/01/24 18:30:25;;;;;;;8.3;4;;;;;;;8.41;74.49;98400;;;;
2024/01/24 18:41:25;;;;;;;8.3;4;;;;;;;8.39;72.99;98391.666666667;;;;
2024/01/24 18:52:25;;;;;;;6.7;3.6;;;;;;;8.41;72.14;98391.666666667;;;;
2024/01/24 19:02:25;;;;;;;6.7;3.6;;;;;;;8.48;71.18;98396.666666667;;;;
2024/01/24 19:13:25;;;;;;;6.7;3.6;;;;;;;8.47;70.31;98400;;;;
2024/01/24 19:24:25;;;;;;;6;3.6;;;;;;;8.45;70.55;98390;;;;
2024/01/24 19:35:25;;;;;;;6;3.6;;;;;;;8.39;70.22;98400;;;;
2024/01/24 19:45:25;;;;;;;6;3.6;;;;;;;8.38;70.22;98390;;;;
2024/01/24 19:56:25;;;;;;;8.3;2.7;;;;;;;8.47;68.67;98388.333333333;;;;
2024/01/24 20:07:25;;;;;;;8.3;2.7;;;;;;;8.55;68.2;98385;;;;
2024/01/24 20:17:25;;;;;;;8.3;2.7;;;;;;;8.54;68.87;98385;;;;
2024/01/24 20:28:25;;;;;;;7.5;2.3;;;;;;;8.58;67.53;98386.666666667;;;;
2024/01/24 20:38:25;;;;;;;7.5;2.3;;;;;;;8.63;66.41;98386.666666667;;;;
2024/01/24 20:49:25;;;;;;;7.5;2.3;;;;;;;8.51;68.2;98395;;;;
2024/01/24 20:59:25;;;;;;;7.6;3;;;;;;;8.33;68.63;98381.666666667;;;;
2024/01/24 21:10:25;;;;;;;7.6;3;;;;;;;8.34;68.67;98415;;;;
2024/01/24 21:21:26;;;;;;;7.2;2.8;;;;;;;8.14;70.11;98405;;;;
2024/01/24 21:31:25;;;;;;;7.2;2.8;;;;;;;8;71.68;98408.333333333;;;;
2024/01/24 21:42:25;;;;;;;7.2;2.8;;;;;;;7.92;72.71;98400;;;;
2024/01/24 21:52:25;;;;;;;8.9;3.9;;;;;;;7.86;72.52;98401.666666667;;;;
2024/01/24 22:03:25;;;;;;;8.9;3.9;;;;;;;7.76;73.17;98403.333333333;;;;
2024/01/24 22:13:25;;;;;;;8.9;3.9;;;;;;;7.85;71.12;98395;;;;
2024/01/24 22:23:25;;;;;;;10.2;4.2;;;;;;;7.89;70.82;98401.666666667;;;;
2024/01/24 22:34:26;;;;;;;10.2;4.2;;;;;;;7.85;71.25;98421.666666667;;;;
2024/01/24 22:45:25;;;;;;;10.2;4.2;;;;;;;7.54;72.08;98438.333333333;;;;
2024/01/24 22:56:25;;;;;;;9.2;3.6;;;;;;;7.53;72.7;98430;;;;
2024/01/24 23:07:25;;;;;;;9.2;3.6;;;;;;;7.37;74.67;98461.666666667;;;;
2024/01/24 23:17:25;;;;;;;9.2;3.6;;;;;;;6.73;79.12;98460;;;;
2024/01/24 23:28:25;;;;;;;6.8;2.7;;;;;;;6.47;79.38;98468.333333333;;;;
2024/01/24 23:39:25;;;;;;;6.8;2.7;;;;;;;6.28;80.22;98458.333333333;;;;
2024/01/24 23:50:25;;;;;;;8.3;3.2;;;;;;;6.37;79.37;98461.666666667;;;;
